^^
Saratoga-Weather Station Historical Data
Daily Summary for December 5, 2020 Units:  English    Metric   Both
Daily Weekly Monthly Yearly Custom
  High: Low: Average:
Temperature: 38.1 °F 34.5 °F 36.3 °F
Dew Point: 37.2 °F 33.4 °F 35.2 °F
Humidity: 97% 93% 96%
Wind Speed: 2.9mph 0mph 0.3mph
Wind Gust: 4mph - -
Wind- - SSE
Pressure: 29.5 in 29.2 in -
Precipitation: 0.01 in    
Historical Graphs
 
 
Tabular Data for December 5, 2020
Time Temperature Dew Point Pressure Wind Wind Speed Wind Gust Humidity Rainfall Rate (Hourly) solar
00:04 34.9 °F 34.2 °F 29.2 in Calm     97% 0 in 0 W/m2
00:09 34.9 °F 34.2 °F 29.3 in Calm     97% 0 in 0 W/m2
00:15 34.9 °F 34.2 °F 29.3 in Calm     97% 0 in 0 W/m2
00:20 34.7 °F 34 °F 29.3 in Calm     97% 0 in 0 W/m2
00:25 34.7 °F 34 °F 29.3 in Calm     97% 0 in 0 W/m2
00:30 34.5 °F 33.8 °F 29.3 in Calm     97% 0 in 0 W/m2
00:35 34.5 °F 33.8 °F 29.3 in Calm     97% 0 in 0 W/m2
00:40 34.5 °F 33.4 °F 29.3 in Calm     96% 0 in 0 W/m2
00:45 34.5 °F 33.4 °F 29.3 in Calm     96% 0 in 0 W/m2
00:50 34.7 °F 33.6 °F 29.3 in East 0.9 mph 1 mph 96% 0 in 0 W/m2
00:55 34.7 °F 33.6 °F 29.2 in East 2 mph 2 mph 96% 0 in 0 W/m2
01:00 35.1 °F 34.3 °F 29.3 in Calm   2 mph 97% 0 in 0 W/m2
01:05 35.1 °F 34.3 °F 29.3 in Calm     97% 0 in 0 W/m2
01:10 35.2 °F 34.5 °F 29.3 in Calm   1 mph 97% 0 in 0 W/m2
01:15 35.2 °F 34.5 °F 29.3 in WSW 0.9 mph 1 mph 97% 0 in 0 W/m2
01:20 35.2 °F 34.5 °F 29.3 in Calm     97% 0 in 0 W/m2
01:25 35.2 °F 34.5 °F 29.3 in Calm     97% 0 in 0 W/m2
01:30 35.2 °F 34.5 °F 29.3 in Calm     97% 0 in 0 W/m2
01:35 35.1 °F 34.3 °F 29.3 in Calm     97% 0 in 0 W/m2
01:40 35.1 °F 34.3 °F 29.3 in Calm     97% 0 in 0 W/m2
01:45 35.1 °F 34.3 °F 29.3 in Calm     97% 0 in 0 W/m2
01:50 35.1 °F 34.3 °F 29.3 in Calm     97% 0 in 0 W/m2
01:55 34.9 °F 34.2 °F 29.3 in Calm     97% 0 in 0 W/m2
02:00 34.9 °F 34.2 °F 29.3 in Calm     97% 0 in 0 W/m2
02:05 34.9 °F 34.2 °F 29.3 in Calm     97% 0 in 0 W/m2
02:10 34.9 °F 34.2 °F 29.3 in Calm     97% 0 in 0 W/m2
02:15 34.9 °F 34.2 °F 29.3 in Calm     97% 0 in 0 W/m2
02:20 34.9 °F 34.2 °F 29.3 in Calm     97% 0 in 0 W/m2
02:25 34.9 °F 34.2 °F 29.3 in Calm     97% 0 in 0 W/m2
02:30 34.9 °F 34.2 °F 29.3 in Calm     97% 0 in 0 W/m2
02:35 34.9 °F 34.2 °F 29.3 in Calm     97% 0 in 0 W/m2
02:40 35.1 °F 34.3 °F 29.3 in Calm     97% 0 in 0 W/m2
02:45 35.1 °F 34.3 °F 29.3 in Calm     97% 0 in 0 W/m2
02:50 35.1 °F 34.3 °F 29.3 in Calm     97% 0 in 0 W/m2
02:55 35.1 °F 34.3 °F 29.3 in Calm     97% 0 in 0 W/m2
03:00 35.1 °F 34.3 °F 29.3 in Calm     97% 0 in 0 W/m2
03:05 35.1 °F 34.3 °F 29.3 in Calm     97% 0 in 0 W/m2
03:10 35.2 °F 34.5 °F 29.3 in Calm     97% 0 in 0 W/m2
03:15 35.2 °F 34.5 °F 29.3 in Calm     97% 0 in 0 W/m2
03:20 35.4 °F 34.7 °F 29.3 in Calm     97% 0 in 0 W/m2
03:25 35.4 °F 34.7 °F 29.3 in Calm     97% 0 in 0 W/m2
03:30 35.6 °F 34.9 °F 29.3 in Calm     97% 0 in 0 W/m2
03:35 35.6 °F 34.9 °F 29.3 in Calm     97% 0 in 0 W/m2
03:40 35.8 °F 35.1 °F 29.3 in SW 0.9 mph 2 mph 97% 0 in 0 W/m2
03:45 35.8 °F 35.1 °F 29.3 in East 2.9 mph 3 mph 97% 0 in 0 W/m2
03:50 36 °F 35.2 °F 29.3 in East 2 mph 2 mph 97% 0.01 in 0 W/m2
03:55 36.1 °F 35.4 °F 29.3 in ESE 0.9 mph 2 mph 97% 0.01 in 0 W/m2
04:00 36.1 °F 35.4 °F 29.3 in Calm     97% 0.01 in 0 W/m2
04:05 36.1 °F 35.4 °F 29.3 in Calm   2 mph 97% 0.01 in 0 W/m2
04:10 36 °F 35.2 °F 29.3 in ENE 2 mph 2 mph 97% 0.01 in 0 W/m2
04:15 36 °F 35.2 °F 29.3 in Calm     97% 0.01 in 0 W/m2
04:20 35.8 °F 35.1 °F 29.3 in Calm   2 mph 97% 0.01 in 0 W/m2
04:25 35.6 °F 34.9 °F 29.3 in Calm     97% 0.01 in 0 W/m2
04:30 35.4 °F 34.7 °F 29.3 in Calm     97% 0.01 in 0 W/m2
04:35 35.6 °F 34.9 °F 29.3 in ESE 0.9 mph 1 mph 97% 0.01 in 0 W/m2
04:40 35.8 °F 35.1 °F 29.3 in ESE 0.9 mph 1 mph 97% 0.01 in 0 W/m2
04:45 35.8 °F 35.1 °F 29.3 in Calm     97% 0.01 in 0 W/m2
04:50 36 °F 35.2 °F 29.3 in Calm     97% 0 in 0 W/m2
04:55 36 °F 35.2 °F 29.3 in Calm     97% 0 in 0 W/m2
05:00 36.1 °F 35.4 °F 29.3 in Calm     97% 0 in 0 W/m2
05:05 36.1 °F 35.4 °F 29.3 in WSW 0.9 mph 2 mph 97% 0 in 0 W/m2
05:10 36.3 °F 35.6 °F 29.3 in NW 2 mph 2 mph 97% 0 in 0 W/m2
05:15 36.9 °F 36.1 °F 29.3 in NNW 0.9 mph 2 mph 97% 0 in 0 W/m2
05:20 36.9 °F 36.1 °F 29.3 in Calm   1 mph 97% 0 in 0 W/m2
05:25 37 °F 36.3 °F 29.3 in Calm   1 mph 97% 0 in 0 W/m2
05:30 37 °F 36.3 °F 29.3 in WNW 2 mph 4 mph 97% 0 in 0 W/m2
05:35 37.2 °F 36.5 °F 29.3 in Calm   2 mph 97% 0 in 0 W/m2
05:40 37.4 °F 36.7 °F 29.3 in Calm   4 mph 97% 0 in 0 W/m2
05:45 37.4 °F 36.7 °F 29.3 in North 0.9 mph 1 mph 97% 0 in 0 W/m2
05:50 37.4 °F 36.7 °F 29.4 in Calm   1 mph 97% 0 in 0 W/m2
05:55 37.4 °F 36.7 °F 29.4 in Calm   1 mph 97% 0 in 0 W/m2
06:01 37.4 °F 36.7 °F 29.4 in North 2 mph 3 mph 97% 0 in 0 W/m2
06:06 37.6 °F 36.9 °F 29.4 in Calm   1 mph 97% 0 in 0 W/m2
06:11 37.6 °F 36.9 °F 29.4 in North 0.9 mph 3 mph 97% 0 in 0 W/m2
06:16 37.6 °F 36.9 °F 29.4 in Calm   1 mph 97% 0 in 0 W/m2
06:21 37.6 °F 36.9 °F 29.4 in Calm     97% 0 in 0 W/m2
06:26 37.6 °F 36.9 °F 29.4 in Calm   1 mph 97% 0 in 0 W/m2
06:31 37.6 °F 36.9 °F 29.4 in Calm   1 mph 97% 0 in 0 W/m2
06:36 37.6 °F 36.9 °F 29.4 in ENE 0.9 mph 2 mph 97% 0 in 0 W/m2
06:41 37.6 °F 36.9 °F 29.4 in Calm   1 mph 97% 0 in 0 W/m2
06:46 37.6 °F 36.9 °F 29.4 in Calm     97% 0 in 0 W/m2
06:51 37.6 °F 36.9 °F 29.4 in Calm   1 mph 97% 0 in 0 W/m2
06:56 37.2 °F 36.5 °F 29.4 in Calm     97% 0 in 0 W/m2
07:01 37.2 °F 36.5 °F 29.4 in ENE 0.9 mph 2 mph 97% 0 in 0 W/m2
07:06 37.2 °F 36.5 °F 29.4 in Calm     97% 0 in 0 W/m2
07:11 37.4 °F 36.7 °F 29.4 in Calm   3 mph 97% 0 in 0 W/m2
07:16 37.4 °F 36.7 °F 29.4 in NNE 2 mph 2 mph 97% 0 in 0 W/m2
07:21 37.6 °F 36.9 °F 29.4 in Calm     97% 0 in 0 W/m2
07:26 37.8 °F 37 °F 29.4 in North 0.9 mph 1 mph 97% 0 in 0 W/m2
07:31 37.9 °F 37.2 °F 29.4 in Calm   1 mph 97% 0 in 0 W/m2
07:36 37.9 °F 36.9 °F 29.4 in Calm   1 mph 96% 0 in 0 W/m2
07:41 37.9 °F 36.9 °F 29.4 in Calm   1 mph 96% 0 in 0 W/m2
07:46 37.9 °F 36.9 °F 29.4 in Calm   1 mph 96% 0 in 0 W/m2
07:51 38.1 °F 36.9 °F 29.4 in WNW 2 mph 3 mph 95% 0 in 0 W/m2
07:56 38.1 °F 36.9 °F 29.4 in Calm   1 mph 95% 0 in 0 W/m2
08:01 38.1 °F 36.5 °F 29.4 in Calm   1 mph 94% 0 in 0 W/m2
08:06 38.1 °F 36.5 °F 29.4 in Calm     94% 0 in 0 W/m2
08:11 38.1 °F 36.5 °F 29.4 in Calm     94% 0 in 0 W/m2
08:16 37.9 °F 36.3 °F 29.4 in NW 0.9 mph 2 mph 94% 0 in 0 W/m2
08:21 37.9 °F 36.3 °F 29.4 in Calm   2 mph 94% 0 in 0 W/m2
08:26 37.8 °F 36 °F 29.4 in Calm     93% 0 in 5 W/m2
08:31 37.8 °F 36 °F 29.4 in Calm     93% 0 in 5 W/m2
08:36 37.6 °F 35.8 °F 29.4 in Calm     93% 0 in 12 W/m2
08:41 37.4 °F 35.8 °F 29.4 in Calm   3 mph 94% 0 in 16 W/m2
08:46 37.2 °F 35.6 °F 29.4 in Calm   1 mph 94% 0 in 18 W/m2
08:51 37 °F 35.4 °F 29.4 in NE 2 mph 2 mph 94% 0 in 25 W/m2
08:56 37 °F 35.4 °F 29.4 in Calm   1 mph 94% 0 in 30 W/m2
09:01 37 °F 35.4 °F 29.4 in Calm     94% 0 in 18 W/m2
09:06 37 °F 35.4 °F 29.4 in Calm     94% 0 in 19 W/m2
09:11 36.9 °F 35.2 °F 29.4 in Calm     94% 0 in 18 W/m2
09:16 36.7 °F 35.1 °F 29.4 in Calm     94% 0 in 19 W/m2
09:21 36.5 °F 34.9 °F 29.5 in Calm     94% 0 in 33 W/m2
09:26 36.3 °F 34.7 °F 29.5 in Calm     94% 0 in 35 W/m2
09:31 36.1 °F 34.5 °F 29.5 in Calm     94% 0 in 30 W/m2
09:36 36.1 °F 34.5 °F 29.5 in Calm     94% 0 in 26 W/m2
09:41 36.1 °F 34.5 °F 29.5 in ENE 2 mph 3 mph 94% 0 in 21 W/m2
09:46 36.1 °F 34.9 °F 29.5 in SE 0.9 mph 1 mph 95% 0 in 21 W/m2
09:51 36.1 °F 34.9 °F 29.5 in SE 0.9 mph 3 mph 95% 0 in 23 W/m2
09:56 36.1 °F 34.5 °F 29.5 in Calm   1 mph 94% 0 in 23 W/m2
10:01 36.1 °F 34.5 °F 29.5 in Calm   2 mph 94% 0 in 23 W/m2
10:06 36 °F 34.7 °F 29.5 in Calm     95% 0 in 23 W/m2
10:11 36 °F 34.7 °F 29.5 in Calm     95% 0 in 23 W/m2
10:16 36 °F 34.7 °F 29.5 in Calm     95% 0 in 25 W/m2
10:21 36 °F 34.7 °F 29.5 in SSE 2 mph 3 mph 95% 0 in 26 W/m2
Juneau County Weather
Compliments of Weather Underground - 4 mb